sensor_id;sensor_type;location;lat;lon;timestamp;P1;durP1;ratioP1;P2;durP2;ratioP2
3523;SDS011;1776;53.330;11.498;2023-10-31T00:01:18;7.00;;;5.33;;
3523;SDS011;1776;53.330;11.498;2023-10-31T00:03:45;7.47;;;5.70;;
3523;SDS011;1776;53.330;11.498;2023-10-31T00:06:10;10.83;;;5.27;;
3523;SDS011;1776;53.330;11.498;2023-10-31T00:08:35;9.97;;;5.70;;
3523;SDS011;1776;53.330;11.498;2023-10-31T00:11:00;7.70;;;5.20;;
3523;SDS011;1776;53.330;11.498;2023-10-31T00:13:26;9.10;;;4.67;;
3523;SDS011;1776;53.330;11.498;2023-10-31T00:15:51;7.80;;;5.20;;
3523;SDS011;1776;53.330;11.498;2023-10-31T00:18:16;8.50;;;5.90;;
3523;SDS011;1776;53.330;11.498;2023-10-31T00:20:42;8.70;;;5.17;;
3523;SDS011;1776;53.330;11.498;2023-10-31T00:23:07;21.07;;;5.07;;
3523;SDS011;1776;53.330;11.498;2023-10-31T00:25:32;9.23;;;4.87;;
3523;SDS011;1776;53.330;11.498;2023-10-31T00:27:57;9.27;;;5.40;;
3523;SDS011;1776;53.330;11.498;2023-10-31T00:30:23;10.33;;;5.63;;
3523;SDS011;1776;53.330;11.498;2023-10-31T00:32:48;9.13;;;5.40;;
3523;SDS011;1776;53.330;11.498;2023-10-31T00:35:13;11.20;;;6.03;;
3523;SDS011;1776;53.330;11.498;2023-10-31T00:37:39;13.20;;;7.17;;
3523;SDS011;1776;53.330;11.498;2023-10-31T00:40:05;12.63;;;7.10;;
3523;SDS011;1776;53.330;11.498;2023-10-31T00:42:36;13.00;;;7.37;;
3523;SDS011;1776;53.330;11.498;2023-10-31T00:45:02;11.97;;;6.33;;
3523;SDS011;1776;53.330;11.498;2023-10-31T00:47:27;14.73;;;6.00;;
3523;SDS011;1776;53.330;11.498;2023-10-31T00:49:52;12.53;;;6.33;;
3523;SDS011;1776;53.330;11.498;2023-10-31T00:52:18;8.10;;;5.93;;
3523;SDS011;1776;53.330;11.498;2023-10-31T00:54:43;11.20;;;5.30;;
3523;SDS011;1776;53.330;11.498;2023-10-31T00:57:09;11.40;;;7.17;;
3523;SDS011;1776;53.330;11.498;2023-10-31T00:59:34;10.53;;;6.03;;
3523;SDS011;1776;53.330;11.498;2023-10-31T01:01:59;8.57;;;5.50;;
3523;SDS011;1776;53.330;11.498;2023-10-31T01:04:25;13.77;;;6.93;;
3523;SDS011;1776;53.330;11.498;2023-10-31T01:06:51;13.73;;;6.93;;
3523;SDS011;1776;53.330;11.498;2023-10-31T01:09:16;10.30;;;5.70;;
3523;SDS011;1776;53.330;11.498;2023-10-31T01:11:41;15.47;;;6.30;;
3523;SDS011;1776;53.330;11.498;2023-10-31T01:14:07;9.00;;;5.70;;
3523;SDS011;1776;53.330;11.498;2023-10-31T01:16:32;6.97;;;5.00;;
3523;SDS011;1776;53.330;11.498;2023-10-31T01:18:57;7.63;;;6.30;;
3523;SDS011;1776;53.330;11.498;2023-10-31T01:21:23;11.73;;;5.70;;
3523;SDS011;1776;53.330;11.498;2023-10-31T01:23:48;12.00;;;5.73;;
3523;SDS011;1776;53.330;11.498;2023-10-31T01:26:14;11.47;;;5.93;;
3523;SDS011;1776;53.330;11.498;2023-10-31T01:28:39;7.77;;;5.43;;
3523;SDS011;1776;53.330;11.498;2023-10-31T01:31:04;12.07;;;6.77;;
3523;SDS011;1776;53.330;11.498;2023-10-31T01:33:31;12.37;;;6.20;;
3523;SDS011;1776;53.330;11.498;2023-10-31T01:35:56;6.93;;;5.97;;
3523;SDS011;1776;53.330;11.498;2023-10-31T01:38:21;10.97;;;6.60;;
3523;SDS011;1776;53.330;11.498;2023-10-31T01:40:50;14.47;;;5.30;;
3523;SDS011;1776;53.330;11.498;2023-10-31T01:45:56;9.30;;;5.33;;
3523;SDS011;1776;53.330;11.498;2023-10-31T01:48:21;8.00;;;5.13;;
3523;SDS011;1776;53.330;11.498;2023-10-31T01:50:48;8.87;;;5.70;;
3523;SDS011;1776;53.330;11.498;2023-10-31T01:53:14;10.87;;;5.93;;
3523;SDS011;1776;53.330;11.498;2023-10-31T01:55:39;9.40;;;5.60;;
3523;SDS011;1776;53.330;11.498;2023-10-31T01:58:05;8.00;;;6.50;;
3523;SDS011;1776;53.330;11.498;2023-10-31T02:00:30;12.90;;;5.80;;
3523;SDS011;1776;53.330;11.498;2023-10-31T02:02:55;9.27;;;5.90;;
3523;SDS011;1776;53.330;11.498;2023-10-31T02:05:22;13.30;;;6.80;;
3523;SDS011;1776;53.330;11.498;2023-10-31T02:07:48;8.23;;;5.70;;
3523;SDS011;1776;53.330;11.498;2023-10-31T02:10:13;9.20;;;6.00;;
3523;SDS011;1776;53.330;11.498;2023-10-31T02:12:38;7.63;;;5.37;;
3523;SDS011;1776;53.330;11.498;2023-10-31T02:15:04;12.13;;;5.47;;
3523;SDS011;1776;53.330;11.498;2023-10-31T02:17:30;7.83;;;5.30;;
3523;SDS011;1776;53.330;11.498;2023-10-31T02:19:55;10.10;;;5.50;;
3523;SDS011;1776;53.330;11.498;2023-10-31T02:22:21;6.40;;;5.47;;
3523;SDS011;1776;53.330;11.498;2023-10-31T02:24:47;10.40;;;6.23;;
3523;SDS011;1776;53.330;11.498;2023-10-31T02:27:13;6.80;;;5.03;;
3523;SDS011;1776;53.330;11.498;2023-10-31T02:29:39;9.23;;;4.87;;
3523;SDS011;1776;53.330;11.498;2023-10-31T02:32:05;7.07;;;5.10;;
3523;SDS011;1776;53.330;11.498;2023-10-31T02:34:30;9.30;;;5.30;;
3523;SDS011;1776;53.330;11.498;2023-10-31T02:36:55;6.27;;;5.23;;
3523;SDS011;1776;53.330;11.498;2023-10-31T02:39:20;6.57;;;4.50;;
3523;SDS011;1776;53.330;11.498;2023-10-31T02:41:46;8.37;;;4.53;;
3523;SDS011;1776;53.330;11.498;2023-10-31T02:44:11;8.97;;;4.60;;
3523;SDS011;1776;53.330;11.498;2023-10-31T02:46:39;7.40;;;5.07;;
3523;SDS011;1776;53.330;11.498;2023-10-31T02:49:04;8.37;;;5.10;;
3523;SDS011;1776;53.330;11.498;2023-10-31T02:51:29;9.47;;;5.37;;
3523;SDS011;1776;53.330;11.498;2023-10-31T02:53:55;8.13;;;4.63;;
3523;SDS011;1776;53.330;11.498;2023-10-31T02:56:20;5.20;;;4.37;;
3523;SDS011;1776;53.330;11.498;2023-10-31T02:58:45;5.00;;;3.90;;
3523;SDS011;1776;53.330;11.498;2023-10-31T03:01:11;6.30;;;4.60;;
3523;SDS011;1776;53.330;11.498;2023-10-31T03:03:36;4.63;;;3.77;;
3523;SDS011;1776;53.330;11.498;2023-10-31T03:06:01;5.90;;;4.00;;
3523;SDS011;1776;53.330;11.498;2023-10-31T03:08:27;7.43;;;4.10;;
3523;SDS011;1776;53.330;11.498;2023-10-31T03:10:53;6.17;;;4.13;;
3523;SDS011;1776;53.330;11.498;2023-10-31T03:13:18;8.67;;;4.00;;
3523;SDS011;1776;53.330;11.498;2023-10-31T03:15:45;5.13;;;3.65;;
3523;SDS011;1776;53.330;11.498;2023-10-31T03:18:11;6.10;;;3.67;;
3523;SDS011;1776;53.330;11.498;2023-10-31T03:20:36;8.50;;;4.20;;
3523;SDS011;1776;53.330;11.498;2023-10-31T03:23:01;6.23;;;4.80;;
3523;SDS011;1776;53.330;11.498;2023-10-31T03:25:26;7.87;;;3.97;;
3523;SDS011;1776;53.330;11.498;2023-10-31T03:27:52;4.03;;;3.60;;
3523;SDS011;1776;53.330;11.498;2023-10-31T03:30:17;4.30;;;3.33;;
3523;SDS011;1776;53.330;11.498;2023-10-31T03:32:42;7.57;;;4.20;;
3523;SDS011;1776;53.330;11.498;2023-10-31T03:35:08;5.97;;;4.57;;
3523;SDS011;1776;53.330;11.498;2023-10-31T03:37:33;5.93;;;4.20;;
3523;SDS011;1776;53.330;11.498;2023-10-31T03:39:59;8.27;;;3.87;;
3523;SDS011;1776;53.330;11.498;2023-10-31T03:42:24;4.67;;;3.73;;
3523;SDS011;1776;53.330;11.498;2023-10-31T03:44:49;7.00;;;3.77;;
3523;SDS011;1776;53.330;11.498;2023-10-31T03:47:14;8.07;;;5.00;;
3523;SDS011;1776;53.330;11.498;2023-10-31T03:49:39;7.53;;;5.00;;
3523;SDS011;1776;53.330;11.498;2023-10-31T03:52:05;6.00;;;4.63;;
3523;SDS011;1776;53.330;11.498;2023-10-31T03:54:31;8.90;;;4.33;;
3523;SDS011;1776;53.330;11.498;2023-10-31T03:56:57;5.07;;;3.80;;
3523;SDS011;1776;53.330;11.498;2023-10-31T03:59:22;5.27;;;4.67;;
3523;SDS011;1776;53.330;11.498;2023-10-31T04:01:47;5.83;;;4.63;;
3523;SDS011;1776;53.330;11.498;2023-10-31T04:04:13;4.37;;;3.97;;
3523;SDS011;1776;53.330;11.498;2023-10-31T04:06:38;4.13;;;3.73;;
3523;SDS011;1776;53.330;11.498;2023-10-31T04:09:05;5.33;;;4.50;;
3523;SDS011;1776;53.330;11.498;2023-10-31T04:11:31;4.77;;;4.27;;
3523;SDS011;1776;53.330;11.498;2023-10-31T04:13:56;11.93;;;3.90;;
3523;SDS011;1776;53.330;11.498;2023-10-31T04:16:21;7.57;;;4.10;;
3523;SDS011;1776;53.330;11.498;2023-10-31T04:18:47;8.40;;;4.97;;
3523;SDS011;1776;53.330;11.498;2023-10-31T04:21:12;8.17;;;4.50;;
3523;SDS011;1776;53.330;11.498;2023-10-31T04:23:37;8.40;;;4.40;;
3523;SDS011;1776;53.330;11.498;2023-10-31T04:26:03;6.93;;;4.43;;
3523;SDS011;1776;53.330;11.498;2023-10-31T04:28:28;5.67;;;4.60;;
3523;SDS011;1776;53.330;11.498;2023-10-31T04:30:53;4.13;;;3.73;;
3523;SDS011;1776;53.330;11.498;2023-10-31T04:33:19;8.60;;;4.30;;
3523;SDS011;1776;53.330;11.498;2023-10-31T04:35:44;4.90;;;4.03;;
3523;SDS011;1776;53.330;11.498;2023-10-31T04:38:09;5.40;;;4.33;;
3523;SDS011;1776;53.330;11.498;2023-10-31T04:40:35;5.17;;;4.70;;
3523;SDS011;1776;53.330;11.498;2023-10-31T04:43:00;5.53;;;4.60;;
3523;SDS011;1776;53.330;11.498;2023-10-31T04:45:26;6.33;;;3.97;;
3523;SDS011;1776;53.330;11.498;2023-10-31T04:47:51;8.47;;;5.10;;
3523;SDS011;1776;53.330;11.498;2023-10-31T04:50:16;7.37;;;4.33;;
3523;SDS011;1776;53.330;11.498;2023-10-31T04:52:42;6.17;;;4.00;;
3523;SDS011;1776;53.330;11.498;2023-10-31T04:55:07;4.80;;;4.30;;
3523;SDS011;1776;53.330;11.498;2023-10-31T04:57:33;5.27;;;3.83;;
3523;SDS011;1776;53.330;11.498;2023-10-31T04:59:58;4.50;;;3.50;;
3523;SDS011;1776;53.330;11.498;2023-10-31T05:02:24;5.87;;;4.20;;
3523;SDS011;1776;53.330;11.498;2023-10-31T05:04:49;8.20;;;3.77;;
3523;SDS011;1776;53.330;11.498;2023-10-31T05:07:17;5.32;;;4.75;;
3523;SDS011;1776;53.330;11.498;2023-10-31T05:09:43;3.93;;;3.53;;
3523;SDS011;1776;53.330;11.498;2023-10-31T05:12:08;8.00;;;4.37;;
3523;SDS011;1776;53.330;11.498;2023-10-31T05:14:34;7.20;;;4.80;;
3523;SDS011;1776;53.330;11.498;2023-10-31T05:16:59;5.30;;;4.63;;
3523;SDS011;1776;53.330;11.498;2023-10-31T05:19:25;6.40;;;4.53;;
3523;SDS011;1776;53.330;11.498;2023-10-31T05:21:50;5.03;;;4.53;;
3523;SDS011;1776;53.330;11.498;2023-10-31T05:24:16;6.33;;;5.00;;
3523;SDS011;1776;53.330;11.498;2023-10-31T05:26:41;9.50;;;4.40;;
3523;SDS011;1776;53.330;11.498;2023-10-31T05:29:10;5.23;;;4.70;;
3523;SDS011;1776;53.330;11.498;2023-10-31T05:31:36;6.60;;;4.83;;
3523;SDS011;1776;53.330;11.498;2023-10-31T05:34:01;7.60;;;4.63;;
3523;SDS011;1776;53.330;11.498;2023-10-31T05:36:28;5.30;;;4.70;;
3523;SDS011;1776;53.330;11.498;2023-10-31T05:38:54;6.73;;;5.00;;
3523;SDS011;1776;53.330;11.498;2023-10-31T05:41:19;5.50;;;4.30;;
3523;SDS011;1776;53.330;11.498;2023-10-31T05:43:44;7.63;;;4.83;;
3523;SDS011;1776;53.330;11.498;2023-10-31T05:46:10;5.87;;;4.87;;
3523;SDS011;1776;53.330;11.498;2023-10-31T05:48:39;6.00;;;4.80;;
3523;SDS011;1776;53.330;11.498;2023-10-31T05:51:10;7.60;;;5.30;;
3523;SDS011;1776;53.330;11.498;2023-10-31T05:53:46;6.53;;;4.93;;
3523;SDS011;1776;53.330;11.498;2023-10-31T05:56:13;12.10;;;6.60;;
3523;SDS011;1776;53.330;11.498;2023-10-31T05:58:40;7.93;;;5.00;;
3523;SDS011;1776;53.330;11.498;2023-10-31T06:01:06;6.43;;;5.77;;
3523;SDS011;1776;53.330;11.498;2023-10-31T06:03:32;6.33;;;5.20;;
3523;SDS011;1776;53.330;11.498;2023-10-31T06:05:58;9.00;;;5.73;;
3523;SDS011;1776;53.330;11.498;2023-10-31T06:08:24;7.93;;;6.10;;
3523;SDS011;1776;53.330;11.498;2023-10-31T06:10:52;6.03;;;5.40;;
3523;SDS011;1776;53.330;11.498;2023-10-31T06:13:18;10.63;;;5.90;;
3523;SDS011;1776;53.330;11.498;2023-10-31T06:15:43;10.47;;;6.93;;
3523;SDS011;1776;53.330;11.498;2023-10-31T06:18:09;8.90;;;6.30;;
3523;SDS011;1776;53.330;11.498;2023-10-31T06:20:34;11.10;;;6.13;;
3523;SDS011;1776;53.330;11.498;2023-10-31T06:23:01;8.43;;;6.60;;
3523;SDS011;1776;53.330;11.498;2023-10-31T06:25:28;9.50;;;6.50;;
3523;SDS011;1776;53.330;11.498;2023-10-31T06:27:53;6.50;;;5.20;;
3523;SDS011;1776;53.330;11.498;2023-10-31T06:30:19;7.23;;;6.43;;
3523;SDS011;1776;53.330;11.498;2023-10-31T06:32:44;9.80;;;5.93;;
3523;SDS011;1776;53.330;11.498;2023-10-31T06:35:09;9.33;;;6.17;;
3523;SDS011;1776;53.330;11.498;2023-10-31T06:37:35;11.57;;;6.90;;
3523;SDS011;1776;53.330;11.498;2023-10-31T06:40:01;8.50;;;6.43;;
3523;SDS011;1776;53.330;11.498;2023-10-31T06:42:26;8.90;;;6.30;;
3523;SDS011;1776;53.330;11.498;2023-10-31T06:44:51;7.87;;;6.83;;
3523;SDS011;1776;53.330;11.498;2023-10-31T06:47:17;7.00;;;5.97;;
3523;SDS011;1776;53.330;11.498;2023-10-31T06:49:42;10.83;;;7.60;;
3523;SDS011;1776;53.330;11.498;2023-10-31T06:52:07;6.93;;;6.23;;
3523;SDS011;1776;53.330;11.498;2023-10-31T06:54:32;9.10;;;6.97;;
3523;SDS011;1776;53.330;11.498;2023-10-31T06:56:59;7.77;;;6.40;;
3523;SDS011;1776;53.330;11.498;2023-10-31T06:59:26;9.25;;;6.35;;
3523;SDS011;1776;53.330;11.498;2023-10-31T07:01:51;5.83;;;5.23;;
3523;SDS011;1776;53.330;11.498;2023-10-31T07:04:17;5.67;;;4.67;;
3523;SDS011;1776;53.330;11.498;2023-10-31T07:06:43;12.00;;;5.93;;
3523;SDS011;1776;53.330;11.498;2023-10-31T07:09:08;4.77;;;3.83;;
3523;SDS011;1776;53.330;11.498;2023-10-31T07:11:34;3.80;;;3.47;;
3523;SDS011;1776;53.330;11.498;2023-10-31T07:14:03;4.47;;;3.10;;
3523;SDS011;1776;53.330;11.498;2023-10-31T07:16:28;6.40;;;3.53;;
3523;SDS011;1776;53.330;11.498;2023-10-31T07:18:54;3.80;;;3.50;;
3523;SDS011;1776;53.330;11.498;2023-10-31T07:21:20;3.97;;;3.63;;
3523;SDS011;1776;53.330;11.498;2023-10-31T07:23:45;5.10;;;3.50;;
3523;SDS011;1776;53.330;11.498;2023-10-31T07:26:10;3.30;;;2.97;;
3523;SDS011;1776;53.330;11.498;2023-10-31T07:28:36;3.27;;;2.97;;
3523;SDS011;1776;53.330;11.498;2023-10-31T07:31:01;4.10;;;2.63;;
3523;SDS011;1776;53.330;11.498;2023-10-31T07:33:26;3.13;;;2.17;;
3523;SDS011;1776;53.330;11.498;2023-10-31T07:35:52;3.30;;;2.30;;
3523;SDS011;1776;53.330;11.498;2023-10-31T07:38:17;2.73;;;2.53;;
3523;SDS011;1776;53.330;11.498;2023-10-31T07:40:43;2.00;;;1.90;;
3523;SDS011;1776;53.330;11.498;2023-10-31T07:43:08;2.87;;;2.50;;
3523;SDS011;1776;53.330;11.498;2023-10-31T07:45:33;2.40;;;1.83;;
3523;SDS011;1776;53.330;11.498;2023-10-31T07:47:58;2.20;;;1.97;;
3523;SDS011;1776;53.330;11.498;2023-10-31T07:50:24;2.50;;;2.30;;
3523;SDS011;1776;53.330;11.498;2023-10-31T07:52:50;2.03;;;1.50;;
3523;SDS011;1776;53.330;11.498;2023-10-31T07:55:15;2.50;;;2.30;;
3523;SDS011;1776;53.330;11.498;2023-10-31T07:57:40;2.70;;;2.30;;
3523;SDS011;1776;53.330;11.498;2023-10-31T08:00:09;2.10;;;1.90;;
3523;SDS011;1776;53.330;11.498;2023-10-31T08:02:36;2.30;;;2.10;;
3523;SDS011;1776;53.330;11.498;2023-10-31T08:05:01;2.77;;;1.83;;
3523;SDS011;1776;53.330;11.498;2023-10-31T08:07:26;1.63;;;1.53;;
3523;SDS011;1776;53.330;11.498;2023-10-31T08:09:55;2.13;;;1.60;;
3523;SDS011;1776;53.330;11.498;2023-10-31T08:12:20;1.40;;;1.30;;
3523;SDS011;1776;53.330;11.498;2023-10-31T08:14:45;1.30;;;1.20;;
3523;SDS011;1776;53.330;11.498;2023-10-31T08:17:11;1.70;;;1.40;;
3523;SDS011;1776;53.330;11.498;2023-10-31T08:19:36;1.20;;;1.10;;
3523;SDS011;1776;53.330;11.498;2023-10-31T08:22:02;1.47;;;1.37;;
3523;SDS011;1776;53.330;11.498;2023-10-31T08:24:27;2.37;;;1.23;;
3523;SDS011;1776;53.330;11.498;2023-10-31T08:26:52;1.50;;;1.40;;
3523;SDS011;1776;53.330;11.498;2023-10-31T08:29:18;1.80;;;1.70;;
3523;SDS011;1776;53.330;11.498;2023-10-31T08:31:43;1.10;;;1.10;;
3523;SDS011;1776;53.330;11.498;2023-10-31T08:34:08;3.67;;;1.50;;
3523;SDS011;1776;53.330;11.498;2023-10-31T08:36:34;2.77;;;1.30;;
3523;SDS011;1776;53.330;11.498;2023-10-31T08:38:59;1.10;;;1.00;;
3523;SDS011;1776;53.330;11.498;2023-10-31T08:41:24;1.27;;;0.80;;
3523;SDS011;1776;53.330;11.498;2023-10-31T08:43:49;1.30;;;1.03;;
3523;SDS011;1776;53.330;11.498;2023-10-31T08:46:15;0.63;;;0.60;;
3523;SDS011;1776;53.330;11.498;2023-10-31T08:48:40;1.13;;;0.80;;
3523;SDS011;1776;53.330;11.498;2023-10-31T08:51:05;1.10;;;0.80;;
3523;SDS011;1776;53.330;11.498;2023-10-31T08:53:31;1.43;;;0.70;;
3523;SDS011;1776;53.330;11.498;2023-10-31T08:55:56;0.60;;;0.60;;
3523;SDS011;1776;53.330;11.498;2023-10-31T08:58:21;1.47;;;0.60;;
3523;SDS011;1776;53.330;11.498;2023-10-31T09:00:47;0.60;;;0.60;;
3523;SDS011;1776;53.330;11.498;2023-10-31T09:03:12;0.70;;;0.60;;
3523;SDS011;1776;53.330;11.498;2023-10-31T09:05:37;0.60;;;0.60;;
3523;SDS011;1776;53.330;11.498;2023-10-31T09:08:02;1.63;;;0.70;;
3523;SDS011;1776;53.330;11.498;2023-10-31T09:10:28;0.70;;;0.60;;
3523;SDS011;1776;53.330;11.498;2023-10-31T09:12:53;1.80;;;0.60;;
3523;SDS011;1776;53.330;11.498;2023-10-31T09:15:18;0.83;;;0.60;;
3523;SDS011;1776;53.330;11.498;2023-10-31T09:17:44;1.63;;;0.60;;
3523;SDS011;1776;53.330;11.498;2023-10-31T09:20:09;1.73;;;0.60;;
3523;SDS011;1776;53.330;11.498;2023-10-31T09:22:36;0.90;;;0.50;;
3523;SDS011;1776;53.330;11.498;2023-10-31T09:25:01;1.00;;;0.60;;
3523;SDS011;1776;53.330;11.498;2023-10-31T09:27:27;0.60;;;0.60;;
3523;SDS011;1776;53.330;11.498;2023-10-31T09:29:52;2.30;;;0.80;;
3523;SDS011;1776;53.330;11.498;2023-10-31T09:32:18;1.10;;;0.90;;
3523;SDS011;1776;53.330;11.498;2023-10-31T09:34:43;0.70;;;0.70;;
3523;SDS011;1776;53.330;11.498;2023-10-31T09:37:08;2.40;;;1.03;;
3523;SDS011;1776;53.330;11.498;2023-10-31T09:39:33;0.97;;;0.83;;
3523;SDS011;1776;53.330;11.498;2023-10-31T09:41:59;1.07;;;1.07;;
3523;SDS011;1776;53.330;11.498;2023-10-31T09:44:24;1.57;;;0.97;;
3523;SDS011;1776;53.330;11.498;2023-10-31T09:46:51;1.77;;;1.67;;
3523;SDS011;1776;53.330;11.498;2023-10-31T09:49:17;2.88;;;2.08;;
3523;SDS011;1776;53.330;11.498;2023-10-31T09:51:43;2.40;;;2.20;;
3523;SDS011;1776;53.330;11.498;2023-10-31T09:54:08;1.33;;;1.23;;
3523;SDS011;1776;53.330;11.498;2023-10-31T09:56:34;3.30;;;1.33;;
3523;SDS011;1776;53.330;11.498;2023-10-31T09:59:00;1.33;;;1.10;;
3523;SDS011;1776;53.330;11.498;2023-10-31T10:01:27;1.40;;;1.20;;
3523;SDS011;1776;53.330;11.498;2023-10-31T10:03:53;3.30;;;0.73;;
3523;SDS011;1776;53.330;11.498;2023-10-31T10:06:19;2.70;;;1.10;;
3523;SDS011;1776;53.330;11.498;2023-10-31T10:08:48;1.53;;;0.80;;
3523;SDS011;1776;53.330;11.498;2023-10-31T10:11:14;1.67;;;0.97;;
3523;SDS011;1776;53.330;11.498;2023-10-31T10:13:39;2.20;;;1.10;;
3523;SDS011;1776;53.330;11.498;2023-10-31T10:16:05;0.90;;;0.90;;
3523;SDS011;1776;53.330;11.498;2023-10-31T10:18:32;0.90;;;0.70;;
3523;SDS011;1776;53.330;11.498;2023-10-31T10:21:01;0.90;;;0.80;;
3523;SDS011;1776;53.330;11.498;2023-10-31T10:23:28;1.00;;;0.70;;
3523;SDS011;1776;53.330;11.498;2023-10-31T10:25:54;0.50;;;0.50;;
3523;SDS011;1776;53.330;11.498;2023-10-31T10:28:21;2.07;;;0.90;;
3523;SDS011;1776;53.330;11.498;2023-10-31T10:30:47;0.93;;;0.80;;
3523;SDS011;1776;53.330;11.498;2023-10-31T10:33:15;2.10;;;0.80;;
3523;SDS011;1776;53.330;11.498;2023-10-31T10:35:41;1.27;;;0.70;;
3523;SDS011;1776;53.330;11.498;2023-10-31T10:38:09;1.67;;;0.87;;
3523;SDS011;1776;53.330;11.498;2023-10-31T10:40:38;3.70;;;1.00;;
3523;SDS011;1776;53.330;11.498;2023-10-31T10:43:05;0.70;;;0.70;;
3523;SDS011;1776;53.330;11.498;2023-10-31T10:45:36;0.50;;;0.50;;
3523;SDS011;1776;53.330;11.498;2023-10-31T10:48:04;1.27;;;0.70;;
3523;SDS011;1776;53.330;11.498;2023-10-31T10:50:31;1.20;;;0.60;;
3523;SDS011;1776;53.330;11.498;2023-10-31T10:55:55;0.50;;;0.50;;
3523;SDS011;1776;53.330;11.498;2023-10-31T10:58:22;1.20;;;0.50;;
3523;SDS011;1776;53.330;11.498;2023-10-31T11:00:52;0.57;;;0.57;;
3523;SDS011;1776;53.330;11.498;2023-10-31T11:03:19;2.90;;;0.70;;
3523;SDS011;1776;53.330;11.498;2023-10-31T11:05:47;0.60;;;0.60;;
3523;SDS011;1776;53.330;11.498;2023-10-31T11:08:12;1.07;;;0.93;;
3523;SDS011;1776;53.330;11.498;2023-10-31T11:10:38;0.80;;;0.50;;
3523;SDS011;1776;53.330;11.498;2023-10-31T11:13:04;3.17;;;0.50;;
3523;SDS011;1776;53.330;11.498;2023-10-31T11:15:30;0.63;;;0.50;;
3523;SDS011;1776;53.330;11.498;2023-10-31T11:17:55;0.50;;;0.50;;
3523;SDS011;1776;53.330;11.498;2023-10-31T11:20:22;0.70;;;0.60;;
3523;SDS011;1776;53.330;11.498;2023-10-31T11:22:49;0.70;;;0.60;;
3523;SDS011;1776;53.330;11.498;2023-10-31T11:25:22;0.70;;;0.70;;
3523;SDS011;1776;53.330;11.498;2023-10-31T11:27:52;0.53;;;0.50;;
3523;SDS011;1776;53.330;11.498;2023-10-31T11:30:22;0.60;;;0.60;;
3523;SDS011;1776;53.330;11.498;2023-10-31T11:32:53;3.10;;;0.55;;
3523;SDS011;1776;53.330;11.498;2023-10-31T11:35:19;2.10;;;0.83;;
3523;SDS011;1776;53.330;11.498;2023-10-31T11:38:00;1.60;;;0.73;;
3523;SDS011;1776;53.330;11.498;2023-10-31T11:40:28;1.57;;;0.97;;
3523;SDS011;1776;53.330;11.498;2023-10-31T11:42:56;0.67;;;0.53;;
3523;SDS011;1776;53.330;11.498;2023-10-31T11:48:10;0.70;;;0.70;;
3523;SDS011;1776;53.330;11.498;2023-10-31T11:50:36;0.80;;;0.80;;
3523;SDS011;1776;53.330;11.498;2023-10-31T11:53:09;2.00;;;0.80;;
3523;SDS011;1776;53.330;11.498;2023-10-31T11:55:39;1.03;;;0.70;;
3523;SDS011;1776;53.330;11.498;2023-10-31T11:58:20;2.43;;;0.90;;
3523;SDS011;1776;53.330;11.498;2023-10-31T12:01:00;1.33;;;0.80;;
3523;SDS011;1776;53.330;11.498;2023-10-31T12:03:28;0.63;;;0.63;;
3523;SDS011;1776;53.330;11.498;2023-10-31T12:06:01;0.70;;;0.60;;
3523;SDS011;1776;53.330;11.498;2023-10-31T12:08:27;5.03;;;1.37;;
3523;SDS011;1776;53.330;11.498;2023-10-31T12:11:02;5.53;;;1.20;;
3523;SDS011;1776;53.330;11.498;2023-10-31T12:13:35;0.70;;;0.70;;
3523;SDS011;1776;53.330;11.498;2023-10-31T12:16:02;1.27;;;1.17;;
3523;SDS011;1776;53.330;11.498;2023-10-31T12:18:28;1.30;;;0.83;;
3523;SDS011;1776;53.330;11.498;2023-10-31T12:20:53;0.53;;;0.53;;
3523;SDS011;1776;53.330;11.498;2023-10-31T12:23:19;1.10;;;0.70;;
3523;SDS011;1776;53.330;11.498;2023-10-31T12:25:47;1.10;;;0.80;;
3523;SDS011;1776;53.330;11.498;2023-10-31T12:28:17;0.53;;;0.50;;
3523;SDS011;1776;53.330;11.498;2023-10-31T12:30:46;2.17;;;0.60;;
3523;SDS011;1776;53.330;11.498;2023-10-31T12:33:16;0.50;;;0.40;;
3523;SDS011;1776;53.330;11.498;2023-10-31T12:35:42;0.57;;;0.50;;
3523;SDS011;1776;53.330;11.498;2023-10-31T12:38:12;0.50;;;0.40;;
3523;SDS011;1776;53.330;11.498;2023-10-31T12:40:39;1.00;;;0.70;;
3523;SDS011;1776;53.330;11.498;2023-10-31T12:43:05;0.60;;;0.57;;
3523;SDS011;1776;53.330;11.498;2023-10-31T12:45:31;24.50;;;12.60;;
3523;SDS011;1776;53.330;11.498;2023-10-31T12:47:59;2.70;;;1.40;;
3523;SDS011;1776;53.330;11.498;2023-10-31T12:50:35;3.53;;;1.87;;
3523;SDS011;1776;53.330;11.498;2023-10-31T12:53:02;8.53;;;4.03;;
3523;SDS011;1776;53.330;11.498;2023-10-31T12:55:29;26.23;;;15.60;;
3523;SDS011;1776;53.330;11.498;2023-10-31T12:57:55;3.07;;;1.83;;
3523;SDS011;1776;53.330;11.498;2023-10-31T13:00:22;9.83;;;6.57;;
3523;SDS011;1776;53.330;11.498;2023-10-31T13:03:00;1.40;;;1.30;;
3523;SDS011;1776;53.330;11.498;2023-10-31T13:05:29;0.70;;;0.50;;
3523;SDS011;1776;53.330;11.498;2023-10-31T13:07:56;1.27;;;0.50;;
3523;SDS011;1776;53.330;11.498;2023-10-31T13:10:23;0.90;;;0.70;;
3523;SDS011;1776;53.330;11.498;2023-10-31T13:12:49;0.60;;;0.53;;
3523;SDS011;1776;53.330;11.498;2023-10-31T13:15:15;1.17;;;0.50;;
3523;SDS011;1776;53.330;11.498;2023-10-31T13:17:41;0.90;;;0.73;;
3523;SDS011;1776;53.330;11.498;2023-10-31T13:20:10;2.17;;;0.93;;
3523;SDS011;1776;53.330;11.498;2023-10-31T13:22:37;1.03;;;0.80;;
3523;SDS011;1776;53.330;11.498;2023-10-31T13:25:06;0.93;;;0.60;;
3523;SDS011;1776;53.330;11.498;2023-10-31T13:27:34;0.60;;;0.60;;
3523;SDS011;1776;53.330;11.498;2023-10-31T13:30:05;0.60;;;0.53;;
3523;SDS011;1776;53.330;11.498;2023-10-31T13:32:31;1.17;;;0.67;;
3523;SDS011;1776;53.330;11.498;2023-10-31T13:34:56;0.80;;;0.77;;
3523;SDS011;1776;53.330;11.498;2023-10-31T13:37:22;0.80;;;0.60;;
3523;SDS011;1776;53.330;11.498;2023-10-31T13:39:47;1.03;;;0.77;;
3523;SDS011;1776;53.330;11.498;2023-10-31T13:42:13;0.90;;;0.60;;
3523;SDS011;1776;53.330;11.498;2023-10-31T13:44:39;1.00;;;0.60;;
3523;SDS011;1776;53.330;11.498;2023-10-31T13:47:05;0.70;;;0.60;;
3523;SDS011;1776;53.330;11.498;2023-10-31T13:49:30;0.80;;;0.50;;
3523;SDS011;1776;53.330;11.498;2023-10-31T13:51:55;2.90;;;1.10;;
3523;SDS011;1776;53.330;11.498;2023-10-31T13:54:21;5.80;;;1.57;;
3523;SDS011;1776;53.330;11.498;2023-10-31T13:56:47;1.30;;;1.10;;
3523;SDS011;1776;53.330;11.498;2023-10-31T13:59:12;1.60;;;0.97;;
3523;SDS011;1776;53.330;11.498;2023-10-31T14:01:38;0.73;;;0.63;;
3523;SDS011;1776;53.330;11.498;2023-10-31T14:04:04;2.80;;;0.70;;
3523;SDS011;1776;53.330;11.498;2023-10-31T14:06:31;1.00;;;0.70;;
3523;SDS011;1776;53.330;11.498;2023-10-31T14:08:57;0.80;;;0.80;;
3523;SDS011;1776;53.330;11.498;2023-10-31T14:11:23;0.70;;;0.50;;
3523;SDS011;1776;53.330;11.498;2023-10-31T14:13:49;2.07;;;0.90;;
3523;SDS011;1776;53.330;11.498;2023-10-31T14:16:15;1.20;;;1.10;;
3523;SDS011;1776;53.330;11.498;2023-10-31T14:18:40;1.37;;;1.20;;
3523;SDS011;1776;53.330;11.498;2023-10-31T14:21:07;1.60;;;1.37;;
3523;SDS011;1776;53.330;11.498;2023-10-31T14:23:33;1.10;;;1.00;;
3523;SDS011;1776;53.330;11.498;2023-10-31T14:25:58;2.17;;;1.90;;
3523;SDS011;1776;53.330;11.498;2023-10-31T14:28:24;3.03;;;1.30;;
3523;SDS011;1776;53.330;11.498;2023-10-31T14:30:49;1.73;;;1.20;;
3523;SDS011;1776;53.330;11.498;2023-10-31T14:33:17;0.93;;;0.80;;
3523;SDS011;1776;53.330;11.498;2023-10-31T14:35:42;1.40;;;1.10;;
3523;SDS011;1776;53.330;11.498;2023-10-31T14:38:07;1.53;;;1.23;;
3523;SDS011;1776;53.330;11.498;2023-10-31T14:40:32;1.43;;;1.33;;
3523;SDS011;1776;53.330;11.498;2023-10-31T14:43:00;2.43;;;1.20;;
3523;SDS011;1776;53.330;11.498;2023-10-31T14:45:26;1.30;;;1.07;;
3523;SDS011;1776;53.330;11.498;2023-10-31T14:47:51;0.87;;;0.80;;
3523;SDS011;1776;53.330;11.498;2023-10-31T14:50:17;1.90;;;1.00;;
3523;SDS011;1776;53.330;11.498;2023-10-31T14:52:43;1.60;;;1.20;;
3523;SDS011;1776;53.330;11.498;2023-10-31T14:55:08;1.70;;;1.60;;
3523;SDS011;1776;53.330;11.498;2023-10-31T14:57:34;2.70;;;1.30;;
3523;SDS011;1776;53.330;11.498;2023-10-31T15:00:00;1.40;;;1.30;;
3523;SDS011;1776;53.330;11.498;2023-10-31T15:02:25;1.73;;;1.37;;